Aroma Park, Illinois
Current Conditions -  °F | °C
As of 11:55 AM on Saturday 20 Dec 2014 (Local Time) from KIKK Reporting Station
Overcast Overcast  
Wind Chill: -2°   Ceiling: 7000
Heat Index:   Visibility: 10mi
Dew Point: -3°   Wind: 6mph
Humidity: 79%   Direction: 190°S
Pressure: 30.28"   Gusts: NA
Location:  41.08°N, 87.81°W
Report Text: KIKK 201755Z AUTO 19005KT 10SM SCT050 OVC070 01/M03 A3028 RMK AO2 T00061027 10006 21020
Loading
Personal Weather Stations






























Interactive Weather Map New forecast layout! Learn more

10-Day Weather Forecast

Advertisements
Track Severe Weather on mobile